Search for airport 
image banner adimage banner adimage banner ad
image banner ad

69PA - Hurst

Located in Newmanstown, United States

ICAO - 69PA, IATA -

Data provided by Airmate  

General information

Coordinates: N40°20'34" W76°12'34"
Elevation is 540 feet MSL.
Magnetic variation is -11° East
View others Airports in Pennsylvania

Operational data

Special qualification required
Current time UTC:
Current local time:
METAR: KRDG 071254Z VRB05KT 10SM SCT120 13/M01 A2990 RMK AO2 SLP130 T01331011
TAF: KRDG 071120Z 0712/0812 VRB03KT P6SM SCT090 BKN200 FM071500 12005KT P6SM SCT040 OVC060 FM072200 26004KT P6SM -SHRA SCT015 OVC025 FM080400 VRB02KT 5SM -SHRA BR OVC020
View NOTAMs / SUP AIP / TFR affecting this airport [VIEW]
Communications frequencies: [VIEW]

Runways:

RWY identifierQFULength (ft)Width (ft)SurfaceLDA (ft)
08116595GRASS
26116595GRASS

Airport contact information

Address: Newmanstown United States

Satellite view of 69PA